Borja — ICEC — position and weather

sailwx.info

Track history (hours):
 
Tides and Currents Weather Stations Pressure Air Temp Water Temp Dewpoint Dewpoint Depression Visibility Wind Speed Wind Dir Waves Ship Positions

Borja

Last reported at 2014-Dec-16 11:08 UTC. Time now 2014-Dec-20 00:50 UTC.
Position N 36°08' W 005°26'.

Length 186 m; draft 6.2 m.

Type: Ship. MMSI: 247196400.

Date/timePositionNaut miles runAvg speedWind from/ knotsBaromVisibWave heightAir tempDewpointWater temp
2014-Dec-16 11:08N 36°08' W 005°26'0 0.0
2014-Dec-16 10:20N 36°08' W 005°26'0 0.0
2014-Dec-16 09:20N 36°08' W 005°26'0 0.0
2014-Dec-16 08:32N 36°08' W 005°26'0 0.0
2014-Dec-16 07:32N 36°08' W 005°26'0 0.0
2014-Dec-16 06:32N 36°08' W 005°26'0 0.0
2014-Dec-16 04:27N 36°08' W 005°26'0 0.0
2014-Dec-15 23:32N 36°08' W 005°26'0 0.0
2014-Dec-15 22:14N 36°08' W 005°26'0 0.0
2014-Dec-15 21:32N 36°08' W 005°26'0 0.0
2014-Dec-15 20:26N 36°08' W 005°26'0 0.0
2014-Dec-15 19:33N 36°08' W 005°26'0 0.0
2014-Dec-15 18:33N 36°08' W 005°26'0 0.0
2014-Dec-15 17:33N 36°08' W 005°26'0 0.0
2014-Dec-15 16:34N 36°08' W 005°26'0 0.0
2014-Dec-15 15:34N 36°08' W 005°26'0 0.0
2014-Dec-15 14:34N 36°08' W 005°26'0 0.0
2014-Dec-15 13:33N 36°08' W 005°26'0 0.0
2014-Dec-15 12:33N 36°08' W 005°26'0 0.0
2014-Dec-15 11:33N 36°08' W 005°26'0 0.0
2014-Dec-15 10:34N 36°08' W 005°26'0 0.0
2014-Dec-15 09:33N 36°08' W 005°26'0 0.0
2014-Dec-15 08:33N 36°08' W 005°26'0 0.0
2014-Dec-15 07:32N 36°08' W 005°26'0 0.1
2014-Dec-15 06:31N 36°08' W 005°26'1 0.5
2014-Dec-15 05:33N 36°08' W 005°26'3 3.0
2014-Dec-15 04:33N 36°06' W 005°24'11 3.7
2014-Dec-15 01:31N 35°57' W 005°32'1313.8
2014-Dec-15 00:34N 36°09' W 005°26'1 1.1
2014-Dec-14 23:33N 36°08' W 005°26'0 0.0
2014-Dec-14 22:18N 36°08' W 005°26'0 0.0
2014-Dec-14 21:27N 36°08' W 005°26'0 0.2
2014-Dec-14 20:34N 36°08' W 005°26'7 6.7
2014-Dec-14 19:33N 36°02' W 005°23'8 2.5
2014-Dec-14 16:22N 35°56' W 005°30'1315.8
2014-Dec-14 15:34N 36°08' W 005°24'2 1.6
2014-Dec-14 14:29N 36°08' W 005°26'0 0.0
2014-Dec-14 13:33N 36°08' W 005°26'0 0.2
2014-Dec-14 12:34N 36°08' W 005°26'0 0.5
2014-Dec-14 11:33N 36°08' W 005°26'0 0.0
2014-Dec-14 10:33N 36°08' W 005°26'0 0.0
2014-Dec-14 09:33N 36°08' W 005°26'0 0.0
2014-Dec-14 06:31N 36°08' W 005°26'0 0.2
2014-Dec-14 05:08N 36°08' W 005°26'1 1.4
2014-Dec-14 04:33N 36°09' W 005°26'9 8.9
2014-Dec-14 03:34N 35°60' W 005°25'4 1.2
2014-Dec-14 00:32N 35°58' W 005°29'1010.7
2014-Dec-13 23:33N 36°08' W 005°24'1 1.3
2014-Dec-13 22:28N 36°08' W 005°26'0 0.0
2014-Dec-13 21:28N 36°08' W 005°26'2 2.0
2014-Dec-13 20:32N 36°08' W 005°24'16 4.8
2014-Dec-13 17:15N 35°53' W 005°31'710.4
2014-Dec-13 16:33N 35°60' W 005°27'8 8.2
2014-Dec-13 15:33N 36°08' W 005°26'0 0.0
2014-Dec-13 14:34N 36°08' W 005°26'0 0.0
2014-Dec-13 13:33N 36°08' W 005°26'0 0.2
2014-Dec-13 12:33N 36°08' W 005°26'9 9.4
2014-Dec-13 11:33N 35°59' W 005°26'3 0.6
2014-Dec-13 06:31N 35°59' W 005°29'10 9.9
2014-Dec-13 05:33N 36°08' W 005°26'0 0.0
2014-Dec-13 04:30N 36°08' W 005°26'2 1.6
2014-Dec-13 03:24N 36°09' W 005°24'911.0
2014-Dec-13 02:33N 35°59' W 005°24'2 0.8
2014-Dec-12 23:34N 35°60' W 005°27'8 5.5
2014-Dec-12 22:07N 36°08' W 005°26'0 0.0
2014-Dec-12 21:33N 36°08' W 005°26'4 3.8
2014-Dec-12 20:33N 36°05' W 005°23'11 3.1
2014-Dec-12 17:05N 35°56' W 005°30'917.3
2014-Dec-12 16:34N 36°04' W 005°24'4 4.1
2014-Dec-12 15:28N 36°08' W 005°26'0 0.0
2014-Dec-12 14:32N 36°08' W 005°26'0 0.0
2014-Dec-12 13:14N 36°08' W 005°26'0 0.2
2014-Dec-12 12:33N 36°08' W 005°26'9 8.7
2014-Dec-12 11:33N 35°59' W 005°25'6 1.1
2014-Dec-12 06:23N 35°56' W 005°31'1316.1
2014-Dec-12 05:33N 36°09' W 005°25'1 1.3
2014-Dec-12 04:33N 36°08' W 005°26'0 0.0
2014-Dec-12 03:33N 36°08' W 005°26'0 0.3
2014-Dec-12 02:33N 36°08' W 005°26'1111.4
2014-Dec-12 01:33N 35°57' W 005°27'7 2.3
2014-Dec-11 22:33N 36°04' W 005°24'5 4.2
2014-Dec-11 21:26N 36°08' W 005°26'0 0.0
2014-Dec-11 20:32N 36°08' W 005°26'3 2.6
2014-Dec-11 19:33N 36°07' W 005°24'11 3.5
2014-Dec-11 16:19N 35°57' W 005°30'1316.6
2014-Dec-11 15:33N 36°08' W 005°25'1 1.2
2014-Dec-11 14:32N 36°08' W 005°26'0 0.0
2014-Dec-11 13:33N 36°08' W 005°26'2 1.9
2014-Dec-11 12:33N 36°08' W 005°24'13 2.0
2014-Dec-11 06:11N 35°56' W 005°30'1219.2
2014-Dec-11 05:33N 36°07' W 005°24'2 2.0
2014-Dec-11 04:33N 36°08' W 005°26'0 0.0
2014-Dec-11 03:33N 36°08' W 005°26'2 1.7
2014-Dec-11 02:33N 36°09' W 005°24'1313.4
2014-Dec-11 01:33N 35°56' W 005°29'3 1.2
2014-Dec-10 22:33N 35°59' W 005°28'9 8.6
2014-Dec-10 21:32N 36°08' W 005°26'0 0.0
2014-Dec-10 20:26N 36°08' W 005°26'0 0.0
2014-Dec-10 19:33N 36°08' W 005°26'7 7.0
2014-Dec-10 18:33N 36°01' W 005°24'7 2.3
2014-Dec-10 15:26N 35°56' W 005°30'1314.4
2014-Dec-10 14:33N 36°09' W 005°26'1 0.8
2014-Dec-10 13:33N 36°08' W 005°26'0 0.0
2014-Dec-10 12:33N 36°08' W 005°26'7 6.8
2014-Dec-10 11:33N 36°01' W 005°24'3 0.7
2014-Dec-10 06:33N 35°59' W 005°27'9 8.7
2014-Dec-10 05:33N 36°08' W 005°26'0 0.0
2014-Dec-10 04:33N 36°08' W 005°26'0 0.0
2014-Dec-10 03:33N 36°08' W 005°26'1 0.8
2014-Dec-10 02:33N 36°09' W 005°26'1615.0
2014-Dec-10 01:30N 35°53' W 005°31'3 1.4
2014-Dec-09 23:21N 35°56' W 005°30'1316.5
2014-Dec-09 22:33N 36°09' W 005°25'1 1.1
2014-Dec-09 21:31N 36°08' W 005°26'0 0.1
2014-Dec-09 20:33N 36°08' W 005°26'8 8.5
2014-Dec-09 19:33N 35°60' W 005°24'6 1.4
2014-Dec-09 15:22N 35°56' W 005°30'1316.4
2014-Dec-09 14:33N 36°09' W 005°26'1 1.0
2014-Dec-09 13:26N 36°08' W 005°26'0 0.2
2014-Dec-09 12:33N 36°08' W 005°26'10 9.9
2014-Dec-09 11:34N 35°58' W 005°27'2 0.3
2014-Dec-09 05:31N 35°58' W 005°29'1010.3
2014-Dec-09 04:33N 36°08' W 005°26'0 0.0
2014-Dec-09 03:27N 36°08' W 005°26'2 1.9
2014-Dec-09 02:30N 36°08' W 005°24'13 3.9
2014-Dec-08 23:08N 35°56' W 005°30'1018.1
2014-Dec-08 22:34N 36°05' W 005°23'4 3.5
2014-Dec-08 21:25N 36°08' W 005°26'0 0.0
2014-Dec-08 20:34N 36°08' W 005°26'6 6.4
2014-Dec-08 19:33N 36°02' W 005°23'11 2.5
2014-Dec-08 15:13N 35°53' W 005°31'1117.3
2014-Dec-08 14:34N 36°03' W 005°24'6 5.6
2014-Dec-08 13:33N 36°08' W 005°26'0 0.0
2014-Dec-08 12:31N 36°08' W 005°26'5 5.2
2014-Dec-08 11:34N 36°04' W 005°23'10 1.8
2014-Dec-08 06:15N 35°56' W 005°30'1115.8
2014-Dec-08 05:34N 36°06' W 005°24'3 3.0
2014-Dec-08 04:34N 36°08' W 005°26'0 0.0
2014-Dec-08 03:33N 36°08' W 005°26'3 2.6
2014-Dec-08 02:34N 36°06' W 005°24'12 3.4
2014-Dec-07 23:11N 35°56' W 005°30'1117.0
2014-Dec-07 22:33N 36°05' W 005°24'3 3.2
2014-Dec-07 21:31N 36°08' W 005°26'0 0.0
2014-Dec-07 20:31N 36°08' W 005°26'3 3.6
2014-Dec-07 19:34N 36°06' W 005°23'11 3.4
2014-Dec-07 16:20N 35°56' W 005°30'1316.9
2014-Dec-07 15:34N 36°09' W 005°25'1 1.1
2014-Dec-07 14:34N 36°08' W 005°26'0 0.0
2014-Dec-07 13:34N 36°08' W 005°26'0 0.2
2014-Dec-07 12:34N 36°08' W 005°26'1212.0
2014-Dec-07 11:33N 35°56' W 005°29'1 0.3
2014-Dec-07 06:34N 35°57' W 005°30'1211.8
2014-Dec-07 05:34N 36°08' W 005°26'0 0.0
2014-Dec-07 04:33N 36°08' W 005°26'3 3.3
2014-Dec-07 03:33N 36°06' W 005°23'9 2.3
2014-Dec-06 23:34N 35°58' W 005°29'10 9.9
2014-Dec-06 22:33N 36°08' W 005°26'0 0.0
2014-Dec-06 21:28N 36°08' W 005°26'0 0.0
2014-Dec-06 20:28N 36°08' W 005°26'1 0.9
2014-Dec-06 19:33N 36°09' W 005°26'8 2.1
2014-Dec-06 15:33N 36°00' W 005°26'8 6.5
2014-Dec-06 14:24N 36°08' W 005°26'0 0.0
2014-Dec-06 13:33N 36°08' W 005°26'0 0.2
2014-Dec-06 12:34N 36°08' W 005°26'1110.6
2014-Dec-06 11:33N 35°58' W 005°29'  
Track history (hours):
 
Tides and Currents Weather Stations Pressure Air Temp Water Temp Dewpoint Dewpoint Depression Visibility Wind Speed Wind Dir Waves Ship Positions

Borja

Last reported at 2014-Dec-16 11:08 UTC. Time now 2014-Dec-20 00:50 UTC.
Position N 36°08' W 005°26'.

Length 186 m; draft 6.2 m.

Type: Ship. MMSI: 247196400.

Date/timePositionNaut miles runAvg speedWind from/ knotsBaromVisibWave heightAir tempDewpointWater temp
2014-Dec-16 11:08N 36°08' W 005°26'0 0.0
2014-Dec-16 10:20N 36°08' W 005°26'0 0.0
2014-Dec-16 09:20N 36°08' W 005°26'0 0.0
2014-Dec-16 08:32N 36°08' W 005°26'0 0.0
2014-Dec-16 07:32N 36°08' W 005°26'0 0.0
2014-Dec-16 06:32N 36°08' W 005°26'0 0.0
2014-Dec-16 04:27N 36°08' W 005°26'0 0.0
2014-Dec-15 23:32N 36°08' W 005°26'0 0.0
2014-Dec-15 22:14N 36°08' W 005°26'0 0.0
2014-Dec-15 21:32N 36°08' W 005°26'0 0.0
2014-Dec-15 20:26N 36°08' W 005°26'0 0.0
2014-Dec-15 19:33N 36°08' W 005°26'0 0.0
2014-Dec-15 18:33N 36°08' W 005°26'0 0.0
2014-Dec-15 17:33N 36°08' W 005°26'0 0.0
2014-Dec-15 16:34N 36°08' W 005°26'0 0.0
2014-Dec-15 15:34N 36°08' W 005°26'0 0.0
2014-Dec-15 14:34N 36°08' W 005°26'0 0.0
2014-Dec-15 13:33N 36°08' W 005°26'0 0.0
2014-Dec-15 12:33N 36°08' W 005°26'0 0.0
2014-Dec-15 11:33N 36°08' W 005°26'0 0.0
2014-Dec-15 10:34N 36°08' W 005°26'0 0.0
2014-Dec-15 09:33N 36°08' W 005°26'0 0.0
2014-Dec-15 08:33N 36°08' W 005°26'0 0.0
2014-Dec-15 07:32N 36°08' W 005°26'0 0.1
2014-Dec-15 06:31N 36°08' W 005°26'1 0.5
2014-Dec-15 05:33N 36°08' W 005°26'3 3.0
2014-Dec-15 04:33N 36°06' W 005°24'11 3.7
2014-Dec-15 01:31N 35°57' W 005°32'1313.8
2014-Dec-15 00:34N 36°09' W 005°26'1 1.1
2014-Dec-14 23:33N 36°08' W 005°26'0 0.0
2014-Dec-14 22:18N 36°08' W 005°26'0 0.0
2014-Dec-14 21:27N 36°08' W 005°26'0 0.2
2014-Dec-14 20:34N 36°08' W 005°26'7 6.7
2014-Dec-14 19:33N 36°02' W 005°23'8 2.5
2014-Dec-14 16:22N 35°56' W 005°30'1315.8
2014-Dec-14 15:34N 36°08' W 005°24'2 1.6
2014-Dec-14 14:29N 36°08' W 005°26'0 0.0
2014-Dec-14 13:33N 36°08' W 005°26'0 0.2
2014-Dec-14 12:34N 36°08' W 005°26'0 0.5
2014-Dec-14 11:33N 36°08' W 005°26'0 0.0
2014-Dec-14 10:33N 36°08' W 005°26'0 0.0
2014-Dec-14 09:33N 36°08' W 005°26'0 0.0
2014-Dec-14 06:31N 36°08' W 005°26'0 0.2
2014-Dec-14 05:08N 36°08' W 005°26'1 1.4
2014-Dec-14 04:33N 36°09' W 005°26'9 8.9
2014-Dec-14 03:34N 35°60' W 005°25'4 1.2
2014-Dec-14 00:32N 35°58' W 005°29'1010.7
2014-Dec-13 23:33N 36°08' W 005°24'1 1.3
2014-Dec-13 22:28N 36°08' W 005°26'0 0.0
2014-Dec-13 21:28N 36°08' W 005°26'2 2.0
2014-Dec-13 20:32N 36°08' W 005°24'16 4.8
2014-Dec-13 17:15N 35°53' W 005°31'710.4
2014-Dec-13 16:33N 35°60' W 005°27'8 8.2
2014-Dec-13 15:33N 36°08' W 005°26'0 0.0
2014-Dec-13 14:34N 36°08' W 005°26'0 0.0
2014-Dec-13 13:33N 36°08' W 005°26'0 0.2
2014-Dec-13 12:33N 36°08' W 005°26'9 9.4
2014-Dec-13 11:33N 35°59' W 005°26'3 0.6
2014-Dec-13 06:31N 35°59' W 005°29'10 9.9
2014-Dec-13 05:33N 36°08' W 005°26'0 0.0
2014-Dec-13 04:30N 36°08' W 005°26'2 1.6
2014-Dec-13 03:24N 36°09' W 005°24'911.0
2014-Dec-13 02:33N 35°59' W 005°24'2 0.8
2014-Dec-12 23:34N 35°60' W 005°27'8 5.5
2014-Dec-12 22:07N 36°08' W 005°26'0 0.0
2014-Dec-12 21:33N 36°08' W 005°26'4 3.8
2014-Dec-12 20:33N 36°05' W 005°23'11 3.1
2014-Dec-12 17:05N 35°56' W 005°30'917.3
2014-Dec-12 16:34N 36°04' W 005°24'4 4.1
2014-Dec-12 15:28N 36°08' W 005°26'0 0.0
2014-Dec-12 14:32N 36°08' W 005°26'0 0.0
2014-Dec-12 13:14N 36°08' W 005°26'0 0.2
2014-Dec-12 12:33N 36°08' W 005°26'9 8.7
2014-Dec-12 11:33N 35°59' W 005°25'6 1.1
2014-Dec-12 06:23N 35°56' W 005°31'1316.1
2014-Dec-12 05:33N 36°09' W 005°25'1 1.3
2014-Dec-12 04:33N 36°08' W 005°26'0 0.0
2014-Dec-12 03:33N 36°08' W 005°26'0 0.3
2014-Dec-12 02:33N 36°08' W 005°26'1111.4
2014-Dec-12 01:33N 35°57' W 005°27'7 2.3
2014-Dec-11 22:33N 36°04' W 005°24'5 4.2
2014-Dec-11 21:26N 36°08' W 005°26'0 0.0
2014-Dec-11 20:32N 36°08' W 005°26'3 2.6
2014-Dec-11 19:33N 36°07' W 005°24'11 3.5
2014-Dec-11 16:19N 35°57' W 005°30'1316.6
2014-Dec-11 15:33N 36°08' W 005°25'1 1.2
2014-Dec-11 14:32N 36°08' W 005°26'0 0.0
2014-Dec-11 13:33N 36°08' W 005°26'2 1.9
2014-Dec-11 12:33N 36°08' W 005°24'13 2.0
2014-Dec-11 06:11N 35°56' W 005°30'1219.2
2014-Dec-11 05:33N 36°07' W 005°24'2 2.0
2014-Dec-11 04:33N 36°08' W 005°26'0 0.0
2014-Dec-11 03:33N 36°08' W 005°26'2 1.7
2014-Dec-11 02:33N 36°09' W 005°24'1313.4
2014-Dec-11 01:33N 35°56' W 005°29'3 1.2
2014-Dec-10 22:33N 35°59' W 005°28'9 8.6
2014-Dec-10 21:32N 36°08' W 005°26'0 0.0
2014-Dec-10 20:26N 36°08' W 005°26'0 0.0
2014-Dec-10 19:33N 36°08' W 005°26'7 7.0
2014-Dec-10 18:33N 36°01' W 005°24'7 2.3
2014-Dec-10 15:26N 35°56' W 005°30'1314.4
2014-Dec-10 14:33N 36°09' W 005°26'1 0.8
2014-Dec-10 13:33N 36°08' W 005°26'0 0.0
2014-Dec-10 12:33N 36°08' W 005°26'7 6.8
2014-Dec-10 11:33N 36°01' W 005°24'3 0.7
2014-Dec-10 06:33N 35°59' W 005°27'9 8.7
2014-Dec-10 05:33N 36°08' W 005°26'0 0.0
2014-Dec-10 04:33N 36°08' W 005°26'0 0.0
2014-Dec-10 03:33N 36°08' W 005°26'1 0.8
2014-Dec-10 02:33N 36°09' W 005°26'1615.0
2014-Dec-10 01:30N 35°53' W 005°31'3 1.4
2014-Dec-09 23:21N 35°56' W 005°30'1316.5
2014-Dec-09 22:33N 36°09' W 005°25'1 1.1
2014-Dec-09 21:31N 36°08' W 005°26'0 0.1
2014-Dec-09 20:33N 36°08' W 005°26'8 8.5
2014-Dec-09 19:33N 35°60' W 005°24'6 1.4
2014-Dec-09 15:22N 35°56' W 005°30'1316.4
2014-Dec-09 14:33N 36°09' W 005°26'1 1.0
2014-Dec-09 13:26N 36°08' W 005°26'0 0.2
2014-Dec-09 12:33N 36°08' W 005°26'10 9.9
2014-Dec-09 11:34N 35°58' W 005°27'2 0.3
2014-Dec-09 05:31N 35°58' W 005°29'1010.3
2014-Dec-09 04:33N 36°08' W 005°26'0 0.0
2014-Dec-09 03:27N 36°08' W 005°26'2 1.9
2014-Dec-09 02:30N 36°08' W 005°24'13 3.9
2014-Dec-08 23:08N 35°56' W 005°30'1018.1
2014-Dec-08 22:34N 36°05' W 005°23'4 3.5
2014-Dec-08 21:25N 36°08' W 005°26'0 0.0
2014-Dec-08 20:34N 36°08' W 005°26'6 6.4
2014-Dec-08 19:33N 36°02' W 005°23'11 2.5
2014-Dec-08 15:13N 35°53' W 005°31'1117.3
2014-Dec-08 14:34N 36°03' W 005°24'6 5.6
2014-Dec-08 13:33N 36°08' W 005°26'0 0.0
2014-Dec-08 12:31N 36°08' W 005°26'5 5.2
2014-Dec-08 11:34N 36°04' W 005°23'10 1.8
2014-Dec-08 06:15N 35°56' W 005°30'1115.8
2014-Dec-08 05:34N 36°06' W 005°24'3 3.0
2014-Dec-08 04:34N 36°08' W 005°26'0 0.0
2014-Dec-08 03:33N 36°08' W 005°26'3 2.6
2014-Dec-08 02:34N 36°06' W 005°24'12 3.4
2014-Dec-07 23:11N 35°56' W 005°30'1117.0
2014-Dec-07 22:33N 36°05' W 005°24'3 3.2
2014-Dec-07 21:31N 36°08' W 005°26'0 0.0
2014-Dec-07 20:31N 36°08' W 005°26'3 3.6
2014-Dec-07 19:34N 36°06' W 005°23'11 3.4
2014-Dec-07 16:20N 35°56' W 005°30'1316.9
2014-Dec-07 15:34N 36°09' W 005°25'1 1.1
2014-Dec-07 14:34N 36°08' W 005°26'0 0.0
2014-Dec-07 13:34N 36°08' W 005°26'0 0.2
2014-Dec-07 12:34N 36°08' W 005°26'1212.0
2014-Dec-07 11:33N 35°56' W 005°29'1 0.3
2014-Dec-07 06:34N 35°57' W 005°30'1211.8
2014-Dec-07 05:34N 36°08' W 005°26'0 0.0
2014-Dec-07 04:33N 36°08' W 005°26'3 3.3
2014-Dec-07 03:33N 36°06' W 005°23'9 2.3
2014-Dec-06 23:34N 35°58' W 005°29'10 9.9
2014-Dec-06 22:33N 36°08' W 005°26'0 0.0
2014-Dec-06 21:28N 36°08' W 005°26'0 0.0
2014-Dec-06 20:28N 36°08' W 005°26'1 0.9
2014-Dec-06 19:33N 36°09' W 005°26'8 2.1
2014-Dec-06 15:33N 36°00' W 005°26'8 6.5
2014-Dec-06 14:24N 36°08' W 005°26'0 0.0
2014-Dec-06 13:33N 36°08' W 005°26'0 0.2
2014-Dec-06 12:34N 36°08' W 005°26'1110.6
2014-Dec-06 11:33N 35°58' W 005°29'  

Dump ship's entire track history